sensor_id;sensor_type;location;lat;lon;timestamp;temperature;humidity
52517;DHT22;59374;53.210;5.726;2022-10-16T00:01:05;12.50;99.90
52517;DHT22;59374;53.210;5.726;2022-10-16T00:03:31;12.50;99.90
52517;DHT22;59374;53.210;5.726;2022-10-16T00:05:59;12.50;99.90
52517;DHT22;59374;53.210;5.726;2022-10-16T00:08:25;12.60;99.90
52517;DHT22;59374;53.210;5.726;2022-10-16T00:10:51;12.50;99.90
52517;DHT22;59374;53.210;5.726;2022-10-16T00:13:16;12.60;99.90
52517;DHT22;59374;53.210;5.726;2022-10-16T00:15:43;12.50;99.90
52517;DHT22;59374;53.210;5.726;2022-10-16T00:18:09;12.50;99.90
52517;DHT22;59374;53.210;5.726;2022-10-16T00:20:35;12.50;99.90
52517;DHT22;59374;53.210;5.726;2022-10-16T00:23:03;12.50;99.90
52517;DHT22;59374;53.210;5.726;2022-10-16T00:25:29;12.50;99.90
52517;DHT22;59374;53.210;5.726;2022-10-16T00:27:54;12.50;99.90
52517;DHT22;59374;53.210;5.726;2022-10-16T00:30:20;12.50;99.90
52517;DHT22;59374;53.210;5.726;2022-10-16T00:32:45;12.50;99.90
52517;DHT22;59374;53.210;5.726;2022-10-16T00:35:11;12.50;99.90
52517;DHT22;59374;53.210;5.726;2022-10-16T00:37:36;12.40;99.90
52517;DHT22;59374;53.210;5.726;2022-10-16T00:40:02;12.40;99.90
52517;DHT22;59374;53.210;5.726;2022-10-16T00:42:28;12.40;99.90
52517;DHT22;59374;53.210;5.726;2022-10-16T00:44:56;12.40;99.90
52517;DHT22;59374;53.210;5.726;2022-10-16T00:49:58;12.40;99.90
52517;DHT22;59374;53.210;5.726;2022-10-16T00:52:25;12.40;99.90
52517;DHT22;59374;53.210;5.726;2022-10-16T00:54:50;12.40;99.90
52517;DHT22;59374;53.210;5.726;2022-10-16T00:57:18;12.40;99.90
52517;DHT22;59374;53.210;5.726;2022-10-16T00:59:43;12.40;99.90
52517;DHT22;59374;53.210;5.726;2022-10-16T01:02:13;12.40;99.90
52517;DHT22;59374;53.210;5.726;2022-10-16T01:04:48;12.50;99.90
52517;DHT22;59374;53.210;5.726;2022-10-16T01:09:57;12.50;99.90
52517;DHT22;59374;53.210;5.726;2022-10-16T01:12:51;12.60;99.90
52517;DHT22;59374;53.210;5.726;2022-10-16T01:17:46;12.60;99.90
52517;DHT22;59374;53.210;5.726;2022-10-16T01:20:20;12.70;99.90
52517;DHT22;59374;53.210;5.726;2022-10-16T01:28:36;12.80;99.90
52517;DHT22;59374;53.210;5.726;2022-10-16T01:31:03;12.90;99.90
52517;DHT22;59374;53.210;5.726;2022-10-16T01:33:44;12.90;99.90
52517;DHT22;59374;53.210;5.726;2022-10-16T01:36:24;12.90;99.90
52517;DHT22;59374;53.210;5.726;2022-10-16T01:38:53;13.00;99.90
52517;DHT22;59374;53.210;5.726;2022-10-16T01:41:32;13.00;99.90
52517;DHT22;59374;53.210;5.726;2022-10-16T01:44:22;13.00;99.90
52517;DHT22;59374;53.210;5.726;2022-10-16T01:46:52;13.00;99.90
52517;DHT22;59374;53.210;5.726;2022-10-16T01:49:21;13.00;99.90
52517;DHT22;59374;53.210;5.726;2022-10-16T01:51:50;13.00;99.90
52517;DHT22;59374;53.210;5.726;2022-10-16T01:54:18;13.00;99.90
52517;DHT22;59374;53.210;5.726;2022-10-16T01:56:46;13.00;99.90
52517;DHT22;59374;53.210;5.726;2022-10-16T01:59:16;13.10;99.90
52517;DHT22;59374;53.210;5.726;2022-10-16T02:01:48;13.10;99.90
52517;DHT22;59374;53.210;5.726;2022-10-16T02:04:19;13.10;99.90
52517;DHT22;59374;53.210;5.726;2022-10-16T02:06:46;13.10;99.90
52517;DHT22;59374;53.210;5.726;2022-10-16T02:09:12;13.10;99.90
52517;DHT22;59374;53.210;5.726;2022-10-16T02:11:40;13.00;99.90
52517;DHT22;59374;53.210;5.726;2022-10-16T02:14:06;13.00;99.90
52517;DHT22;59374;53.210;5.726;2022-10-16T02:16:46;13.00;99.90
52517;DHT22;59374;53.210;5.726;2022-10-16T02:19:16;13.00;99.90
52517;DHT22;59374;53.210;5.726;2022-10-16T02:22:24;12.90;99.90
52517;DHT22;59374;53.210;5.726;2022-10-16T02:24:48;12.80;99.90
52517;DHT22;59374;53.210;5.726;2022-10-16T02:27:41;12.80;99.90
52517;DHT22;59374;53.210;5.726;2022-10-16T02:30:17;12.80;99.90
52517;DHT22;59374;53.210;5.726;2022-10-16T02:32:46;12.70;99.90
52517;DHT22;59374;53.210;5.726;2022-10-16T02:35:13;12.70;99.90
52517;DHT22;59374;53.210;5.726;2022-10-16T02:37:40;12.70;99.90
52517;DHT22;59374;53.210;5.726;2022-10-16T02:40:08;12.70;99.90
52517;DHT22;59374;53.210;5.726;2022-10-16T02:42:36;12.70;99.90
52517;DHT22;59374;53.210;5.726;2022-10-16T02:45:03;12.70;99.90
52517;DHT22;59374;53.210;5.726;2022-10-16T02:47:29;12.60;99.90
52517;DHT22;59374;53.210;5.726;2022-10-16T02:49:54;12.60;99.90
52517;DHT22;59374;53.210;5.726;2022-10-16T02:52:20;12.50;99.90
52517;DHT22;59374;53.210;5.726;2022-10-16T02:54:46;12.50;99.90
52517;DHT22;59374;53.210;5.726;2022-10-16T02:57:11;12.40;99.90
52517;DHT22;59374;53.210;5.726;2022-10-16T02:59:37;12.40;99.90
52517;DHT22;59374;53.210;5.726;2022-10-16T03:02:03;12.40;99.90
52517;DHT22;59374;53.210;5.726;2022-10-16T03:04:28;12.30;99.90
52517;DHT22;59374;53.210;5.726;2022-10-16T03:06:54;12.30;99.90
52517;DHT22;59374;53.210;5.726;2022-10-16T03:09:19;12.30;99.90
52517;DHT22;59374;53.210;5.726;2022-10-16T03:11:45;12.30;99.90
52517;DHT22;59374;53.210;5.726;2022-10-16T03:14:10;12.30;99.90
52517;DHT22;59374;53.210;5.726;2022-10-16T03:16:36;12.30;99.90
52517;DHT22;59374;53.210;5.726;2022-10-16T03:19:02;12.30;99.90
52517;DHT22;59374;53.210;5.726;2022-10-16T03:21:27;12.30;99.90
52517;DHT22;59374;53.210;5.726;2022-10-16T03:23:53;12.30;99.90
52517;DHT22;59374;53.210;5.726;2022-10-16T03:26:18;12.30;99.90
52517;DHT22;59374;53.210;5.726;2022-10-16T03:28:44;12.20;99.90
52517;DHT22;59374;53.210;5.726;2022-10-16T03:31:09;12.20;99.90
52517;DHT22;59374;53.210;5.726;2022-10-16T03:33:35;12.20;99.90
52517;DHT22;59374;53.210;5.726;2022-10-16T03:36:00;12.20;99.90
52517;DHT22;59374;53.210;5.726;2022-10-16T03:38:26;12.20;99.90
52517;DHT22;59374;53.210;5.726;2022-10-16T03:40:51;12.20;99.90
52517;DHT22;59374;53.210;5.726;2022-10-16T03:43:17;12.20;99.90
52517;DHT22;59374;53.210;5.726;2022-10-16T03:45:43;12.20;99.90
52517;DHT22;59374;53.210;5.726;2022-10-16T03:48:10;12.20;99.90
52517;DHT22;59374;53.210;5.726;2022-10-16T03:50:36;12.20;99.90
52517;DHT22;59374;53.210;5.726;2022-10-16T03:53:01;12.20;99.90
52517;DHT22;59374;53.210;5.726;2022-10-16T03:55:27;12.20;99.90
52517;DHT22;59374;53.210;5.726;2022-10-16T03:57:53;12.20;99.90
52517;DHT22;59374;53.210;5.726;2022-10-16T04:00:18;12.30;99.90
52517;DHT22;59374;53.210;5.726;2022-10-16T04:02:44;12.30;99.90
52517;DHT22;59374;53.210;5.726;2022-10-16T04:05:10;12.30;99.90
52517;DHT22;59374;53.210;5.726;2022-10-16T04:07:35;12.30;99.90
52517;DHT22;59374;53.210;5.726;2022-10-16T04:10:01;12.40;99.90
52517;DHT22;59374;53.210;5.726;2022-10-16T04:12:27;12.40;99.90
52517;DHT22;59374;53.210;5.726;2022-10-16T04:14:53;12.50;99.90
52517;DHT22;59374;53.210;5.726;2022-10-16T04:17:18;12.50;99.90
52517;DHT22;59374;53.210;5.726;2022-10-16T04:19:44;12.50;99.90
52517;DHT22;59374;53.210;5.726;2022-10-16T04:22:10;12.50;99.90
52517;DHT22;59374;53.210;5.726;2022-10-16T04:24:35;12.50;99.90
52517;DHT22;59374;53.210;5.726;2022-10-16T04:27:01;12.50;99.90
52517;DHT22;59374;53.210;5.726;2022-10-16T04:29:27;12.60;99.90
52517;DHT22;59374;53.210;5.726;2022-10-16T04:31:52;12.60;99.90
52517;DHT22;59374;53.210;5.726;2022-10-16T04:34:18;12.60;99.90
52517;DHT22;59374;53.210;5.726;2022-10-16T04:36:43;12.60;99.90
52517;DHT22;59374;53.210;5.726;2022-10-16T04:39:09;12.60;99.90
52517;DHT22;59374;53.210;5.726;2022-10-16T04:41:35;12.60;99.90
52517;DHT22;59374;53.210;5.726;2022-10-16T04:44:00;12.60;99.90
52517;DHT22;59374;53.210;5.726;2022-10-16T04:46:26;12.60;99.90
52517;DHT22;59374;53.210;5.726;2022-10-16T04:48:51;12.50;99.90
52517;DHT22;59374;53.210;5.726;2022-10-16T04:51:17;12.50;99.90
52517;DHT22;59374;53.210;5.726;2022-10-16T04:53:44;12.50;99.90
52517;DHT22;59374;53.210;5.726;2022-10-16T04:56:09;12.50;99.90
52517;DHT22;59374;53.210;5.726;2022-10-16T04:58:35;12.50;99.90
52517;DHT22;59374;53.210;5.726;2022-10-16T05:01:00;12.50;99.90
52517;DHT22;59374;53.210;5.726;2022-10-16T05:03:26;12.50;99.90
52517;DHT22;59374;53.210;5.726;2022-10-16T05:05:52;12.50;99.90
52517;DHT22;59374;53.210;5.726;2022-10-16T05:08:18;12.50;99.90
52517;DHT22;59374;53.210;5.726;2022-10-16T05:10:44;12.50;99.90
52517;DHT22;59374;53.210;5.726;2022-10-16T05:13:11;12.50;99.90
52517;DHT22;59374;53.210;5.726;2022-10-16T05:15:36;12.50;99.90
52517;DHT22;59374;53.210;5.726;2022-10-16T05:18:02;12.50;99.90
52517;DHT22;59374;53.210;5.726;2022-10-16T05:20:28;12.40;99.90
52517;DHT22;59374;53.210;5.726;2022-10-16T05:22:54;12.40;99.90
52517;DHT22;59374;53.210;5.726;2022-10-16T05:25:19;12.40;99.90
52517;DHT22;59374;53.210;5.726;2022-10-16T05:27:48;12.40;99.90
52517;DHT22;59374;53.210;5.726;2022-10-16T05:30:14;12.40;99.90
52517;DHT22;59374;53.210;5.726;2022-10-16T05:32:40;12.40;99.90
52517;DHT22;59374;53.210;5.726;2022-10-16T05:35:06;12.40;99.90
52517;DHT22;59374;53.210;5.726;2022-10-16T05:37:32;12.40;99.90
52517;DHT22;59374;53.210;5.726;2022-10-16T05:39:58;12.30;99.90
52517;DHT22;59374;53.210;5.726;2022-10-16T05:42:23;12.30;99.90
52517;DHT22;59374;53.210;5.726;2022-10-16T05:44:49;12.30;99.90
52517;DHT22;59374;53.210;5.726;2022-10-16T05:47:14;12.20;99.90
52517;DHT22;59374;53.210;5.726;2022-10-16T05:49:40;12.20;99.90
52517;DHT22;59374;53.210;5.726;2022-10-16T05:52:05;12.20;99.90
52517;DHT22;59374;53.210;5.726;2022-10-16T05:54:31;12.10;99.90
52517;DHT22;59374;53.210;5.726;2022-10-16T05:56:57;12.10;99.90
52517;DHT22;59374;53.210;5.726;2022-10-16T05:59:22;12.10;99.90
52517;DHT22;59374;53.210;5.726;2022-10-16T06:01:48;12.00;99.90
52517;DHT22;59374;53.210;5.726;2022-10-16T06:04:14;12.00;99.90
52517;DHT22;59374;53.210;5.726;2022-10-16T06:06:40;12.00;99.90
52517;DHT22;59374;53.210;5.726;2022-10-16T06:09:05;12.00;99.90
52517;DHT22;59374;53.210;5.726;2022-10-16T06:11:32;12.00;99.90
52517;DHT22;59374;53.210;5.726;2022-10-16T06:14:00;12.00;99.90
52517;DHT22;59374;53.210;5.726;2022-10-16T06:16:28;12.00;99.90
52517;DHT22;59374;53.210;5.726;2022-10-16T06:18:55;12.00;99.90
52517;DHT22;59374;53.210;5.726;2022-10-16T06:21:26;11.90;99.90
52517;DHT22;59374;53.210;5.726;2022-10-16T06:23:52;12.00;99.90
52517;DHT22;59374;53.210;5.726;2022-10-16T06:26:18;12.00;99.90
52517;DHT22;59374;53.210;5.726;2022-10-16T06:28:44;12.00;99.90
52517;DHT22;59374;53.210;5.726;2022-10-16T06:31:11;12.00;99.90
52517;DHT22;59374;53.210;5.726;2022-10-16T06:33:38;12.10;99.90
52517;DHT22;59374;53.210;5.726;2022-10-16T06:36:06;12.10;99.90
52517;DHT22;59374;53.210;5.726;2022-10-16T06:38:32;12.20;99.90
52517;DHT22;59374;53.210;5.726;2022-10-16T06:40:58;12.20;99.90
52517;DHT22;59374;53.210;5.726;2022-10-16T06:43:24;12.30;99.90
52517;DHT22;59374;53.210;5.726;2022-10-16T06:45:53;12.30;99.90
52517;DHT22;59374;53.210;5.726;2022-10-16T06:48:19;12.30;99.90
52517;DHT22;59374;53.210;5.726;2022-10-16T06:53:32;12.30;99.90
52517;DHT22;59374;53.210;5.726;2022-10-16T06:55:58;12.30;99.90
52517;DHT22;59374;53.210;5.726;2022-10-16T06:58:23;12.30;99.90
52517;DHT22;59374;53.210;5.726;2022-10-16T07:00:54;12.40;99.90
52517;DHT22;59374;53.210;5.726;2022-10-16T07:03:20;12.40;99.90
52517;DHT22;59374;53.210;5.726;2022-10-16T07:05:45;12.40;99.90
52517;DHT22;59374;53.210;5.726;2022-10-16T07:08:11;12.50;99.90
52517;DHT22;59374;53.210;5.726;2022-10-16T07:10:36;12.50;99.90
52517;DHT22;59374;53.210;5.726;2022-10-16T07:13:02;12.50;99.90
52517;DHT22;59374;53.210;5.726;2022-10-16T07:15:28;12.50;99.90
52517;DHT22;59374;53.210;5.726;2022-10-16T07:17:54;12.50;99.90
52517;DHT22;59374;53.210;5.726;2022-10-16T07:20:19;12.50;99.90
52517;DHT22;59374;53.210;5.726;2022-10-16T07:22:45;12.50;99.90
52517;DHT22;59374;53.210;5.726;2022-10-16T07:25:11;12.50;99.90
52517;DHT22;59374;53.210;5.726;2022-10-16T07:27:37;12.50;99.90
52517;DHT22;59374;53.210;5.726;2022-10-16T07:30:03;12.60;99.90
52517;DHT22;59374;53.210;5.726;2022-10-16T07:32:29;12.60;99.90
52517;DHT22;59374;53.210;5.726;2022-10-16T07:34:54;12.60;99.90
52517;DHT22;59374;53.210;5.726;2022-10-16T07:37:21;12.60;99.90
52517;DHT22;59374;53.210;5.726;2022-10-16T07:39:47;12.70;99.90
52517;DHT22;59374;53.210;5.726;2022-10-16T07:42:12;12.70;99.90
52517;DHT22;59374;53.210;5.726;2022-10-16T07:44:38;12.70;99.90
52517;DHT22;59374;53.210;5.726;2022-10-16T07:47:05;12.70;99.90
52517;DHT22;59374;53.210;5.726;2022-10-16T07:49:31;12.70;99.90
52517;DHT22;59374;53.210;5.726;2022-10-16T07:51:56;12.80;99.90
52517;DHT22;59374;53.210;5.726;2022-10-16T07:54:22;12.80;99.90
52517;DHT22;59374;53.210;5.726;2022-10-16T07:56:48;12.80;99.90
52517;DHT22;59374;53.210;5.726;2022-10-16T07:59:13;12.90;99.90
52517;DHT22;59374;53.210;5.726;2022-10-16T08:01:39;12.90;99.90
52517;DHT22;59374;53.210;5.726;2022-10-16T08:04:04;12.90;99.90
52517;DHT22;59374;53.210;5.726;2022-10-16T08:06:36;13.00;99.90
52517;DHT22;59374;53.210;5.726;2022-10-16T08:09:03;13.00;99.90
52517;DHT22;59374;53.210;5.726;2022-10-16T08:11:28;13.10;99.90
52517;DHT22;59374;53.210;5.726;2022-10-16T08:13:54;13.10;99.90
52517;DHT22;59374;53.210;5.726;2022-10-16T08:16:20;13.20;99.90
52517;DHT22;59374;53.210;5.726;2022-10-16T08:18:46;13.30;99.90
52517;DHT22;59374;53.210;5.726;2022-10-16T08:21:12;13.30;99.90
52517;DHT22;59374;53.210;5.726;2022-10-16T08:23:38;13.30;99.90
52517;DHT22;59374;53.210;5.726;2022-10-16T08:26:06;13.30;99.90
52517;DHT22;59374;53.210;5.726;2022-10-16T08:28:32;13.30;99.90
52517;DHT22;59374;53.210;5.726;2022-10-16T08:31:04;13.30;99.90
52517;DHT22;59374;53.210;5.726;2022-10-16T08:33:30;13.30;99.90
52517;DHT22;59374;53.210;5.726;2022-10-16T08:35:55;13.30;99.90
52517;DHT22;59374;53.210;5.726;2022-10-16T08:38:21;13.30;99.90
52517;DHT22;59374;53.210;5.726;2022-10-16T08:40:47;13.30;99.90
52517;DHT22;59374;53.210;5.726;2022-10-16T08:48:51;13.60;99.90
52517;DHT22;59374;53.210;5.726;2022-10-16T08:51:31;13.70;99.90
52517;DHT22;59374;53.210;5.726;2022-10-16T08:54:01;13.90;99.90
52517;DHT22;59374;53.210;5.726;2022-10-16T08:56:28;14.00;99.90
52517;DHT22;59374;53.210;5.726;2022-10-16T08:58:54;14.10;99.90
52517;DHT22;59374;53.210;5.726;2022-10-16T09:01:21;14.20;99.90
52517;DHT22;59374;53.210;5.726;2022-10-16T09:12:06;14.60;99.90
52517;DHT22;59374;53.210;5.726;2022-10-16T09:20:03;14.90;99.90
52517;DHT22;59374;53.210;5.726;2022-10-16T09:22:36;15.00;99.90
52517;DHT22;59374;53.210;5.726;2022-10-16T09:25:10;15.00;99.90
52517;DHT22;59374;53.210;5.726;2022-10-16T09:27:37;15.00;99.90
52517;DHT22;59374;53.210;5.726;2022-10-16T09:30:18;15.10;99.90
52517;DHT22;59374;53.210;5.726;2022-10-16T09:32:47;15.10;99.90
52517;DHT22;59374;53.210;5.726;2022-10-16T09:35:22;15.10;99.90
52517;DHT22;59374;53.210;5.726;2022-10-16T09:37:50;15.20;99.90
52517;DHT22;59374;53.210;5.726;2022-10-16T09:40:34;15.30;99.90
52517;DHT22;59374;53.210;5.726;2022-10-16T09:43:17;15.40;99.90
52517;DHT22;59374;53.210;5.726;2022-10-16T09:48:44;15.70;99.90
52517;DHT22;59374;53.210;5.726;2022-10-16T09:51:26;15.80;99.90
52517;DHT22;59374;53.210;5.726;2022-10-16T09:56:25;15.80;99.90
52517;DHT22;59374;53.210;5.726;2022-10-16T09:58:53;15.80;99.90
52517;DHT22;59374;53.210;5.726;2022-10-16T10:01:21;15.70;99.90
52517;DHT22;59374;53.210;5.726;2022-10-16T10:03:48;15.70;99.90
52517;DHT22;59374;53.210;5.726;2022-10-16T10:06:33;15.70;99.90
52517;DHT22;59374;53.210;5.726;2022-10-16T10:11:38;15.70;99.90
52517;DHT22;59374;53.210;5.726;2022-10-16T10:14:21;15.80;99.90
52517;DHT22;59374;53.210;5.726;2022-10-16T10:16:47;15.80;99.90
52517;DHT22;59374;53.210;5.726;2022-10-16T10:19:22;15.80;99.90
52517;DHT22;59374;53.210;5.726;2022-10-16T10:21:49;15.80;99.90
52517;DHT22;59374;53.210;5.726;2022-10-16T10:24:17;15.90;99.90
52517;DHT22;59374;53.210;5.726;2022-10-16T10:26:51;15.90;99.90
52517;DHT22;59374;53.210;5.726;2022-10-16T10:36:12;15.90;99.90
52517;DHT22;59374;53.210;5.726;2022-10-16T10:55:43;16.10;99.90
52517;DHT22;59374;53.210;5.726;2022-10-16T11:01:14;16.10;99.90
52517;DHT22;59374;53.210;5.726;2022-10-16T11:08:48;16.20;99.90
52517;DHT22;59374;53.210;5.726;2022-10-16T11:16:54;16.30;99.90
52517;DHT22;59374;53.210;5.726;2022-10-16T11:19:34;16.30;99.90
52517;DHT22;59374;53.210;5.726;2022-10-16T11:22:37;16.30;99.90
52517;DHT22;59374;53.210;5.726;2022-10-16T11:27:58;16.10;99.90
52517;DHT22;59374;53.210;5.726;2022-10-16T11:30:28;16.20;99.90
52517;DHT22;59374;53.210;5.726;2022-10-16T11:33:22;16.10;99.90
52517;DHT22;59374;53.210;5.726;2022-10-16T11:46:27;16.20;99.90
52517;DHT22;59374;53.210;5.726;2022-10-16T11:49:18;16.20;99.90
52517;DHT22;59374;53.210;5.726;2022-10-16T11:52:06;16.30;99.90
52517;DHT22;59374;53.210;5.726;2022-10-16T11:57:45;16.40;99.90
52517;DHT22;59374;53.210;5.726;2022-10-16T12:00:22;16.40;99.90
52517;DHT22;59374;53.210;5.726;2022-10-16T12:08:09;16.50;99.90
52517;DHT22;59374;53.210;5.726;2022-10-16T12:10:37;16.60;99.90
52517;DHT22;59374;53.210;5.726;2022-10-16T12:13:32;16.70;99.90
52517;DHT22;59374;53.210;5.726;2022-10-16T12:18:40;16.70;99.90
52517;DHT22;59374;53.210;5.726;2022-10-16T12:21:06;16.80;99.90
52517;DHT22;59374;53.210;5.726;2022-10-16T12:23:37;16.80;99.90
52517;DHT22;59374;53.210;5.726;2022-10-16T12:26:04;16.90;99.90
52517;DHT22;59374;53.210;5.726;2022-10-16T12:28:31;16.90;99.90
52517;DHT22;59374;53.210;5.726;2022-10-16T12:31:01;16.90;99.90
52517;DHT22;59374;53.210;5.726;2022-10-16T12:36:03;16.90;99.90
52517;DHT22;59374;53.210;5.726;2022-10-16T12:41:11;17.00;99.90
52517;DHT22;59374;53.210;5.726;2022-10-16T12:43:39;17.00;99.90
52517;DHT22;59374;53.210;5.726;2022-10-16T12:51:40;17.00;99.90
52517;DHT22;59374;53.210;5.726;2022-10-16T12:54:15;17.00;99.90
52517;DHT22;59374;53.210;5.726;2022-10-16T13:05:23;16.80;99.90
52517;DHT22;59374;53.210;5.726;2022-10-16T13:08:13;16.80;99.90
52517;DHT22;59374;53.210;5.726;2022-10-16T13:13:51;16.80;99.90
52517;DHT22;59374;53.210;5.726;2022-10-16T13:24:42;16.90;99.90
52517;DHT22;59374;53.210;5.726;2022-10-16T13:27:15;16.90;99.90
52517;DHT22;59374;53.210;5.726;2022-10-16T13:29:43;16.70;99.90
52517;DHT22;59374;53.210;5.726;2022-10-16T13:32:11;16.70;99.90
52517;DHT22;59374;53.210;5.726;2022-10-16T13:34:47;16.60;99.90
52517;DHT22;59374;53.210;5.726;2022-10-16T13:37:19;16.50;99.90
52517;DHT22;59374;53.210;5.726;2022-10-16T13:39:45;16.50;99.90
52517;DHT22;59374;53.210;5.726;2022-10-16T13:42:14;16.40;99.90
52517;DHT22;59374;53.210;5.726;2022-10-16T13:44:44;16.40;99.90
52517;DHT22;59374;53.210;5.726;2022-10-16T13:47:16;16.40;99.90
52517;DHT22;59374;53.210;5.726;2022-10-16T13:49:42;16.40;99.90
52517;DHT22;59374;53.210;5.726;2022-10-16T13:52:18;16.40;99.90
52517;DHT22;59374;53.210;5.726;2022-10-16T13:54:44;16.50;99.90
52517;DHT22;59374;53.210;5.726;2022-10-16T13:57:13;16.50;99.90
52517;DHT22;59374;53.210;5.726;2022-10-16T13:59:39;16.50;99.90
52517;DHT22;59374;53.210;5.726;2022-10-16T14:04:46;16.50;99.90
52517;DHT22;59374;53.210;5.726;2022-10-16T14:07:28;16.50;99.90
52517;DHT22;59374;53.210;5.726;2022-10-16T14:09:55;16.60;99.90
52517;DHT22;59374;53.210;5.726;2022-10-16T14:12:21;16.80;99.90
52517;DHT22;59374;53.210;5.726;2022-10-16T14:14:49;17.00;99.90
52517;DHT22;59374;53.210;5.726;2022-10-16T14:17:19;17.10;99.90
52517;DHT22;59374;53.210;5.726;2022-10-16T14:19:47;17.30;99.90
52517;DHT22;59374;53.210;5.726;2022-10-16T14:22:38;17.40;99.90
52517;DHT22;59374;53.210;5.726;2022-10-16T14:30:35;17.40;99.90
52517;DHT22;59374;53.210;5.726;2022-10-16T14:33:04;17.40;99.90
52517;DHT22;59374;53.210;5.726;2022-10-16T14:35:36;17.40;99.90
52517;DHT22;59374;53.210;5.726;2022-10-16T14:38:04;17.40;99.90
52517;DHT22;59374;53.210;5.726;2022-10-16T14:40:32;17.40;99.90
52517;DHT22;59374;53.210;5.726;2022-10-16T14:43:00;17.20;99.90
52517;DHT22;59374;53.210;5.726;2022-10-16T14:45:28;17.10;99.90
52517;DHT22;59374;53.210;5.726;2022-10-16T14:48:00;17.00;99.90
52517;DHT22;59374;53.210;5.726;2022-10-16T14:50:27;16.80;99.90
52517;DHT22;59374;53.210;5.726;2022-10-16T14:52:53;16.70;99.90
52517;DHT22;59374;53.210;5.726;2022-10-16T14:55:19;16.60;99.90
52517;DHT22;59374;53.210;5.726;2022-10-16T14:57:45;16.40;99.90
52517;DHT22;59374;53.210;5.726;2022-10-16T15:00:19;16.30;99.90
52517;DHT22;59374;53.210;5.726;2022-10-16T15:02:45;16.20;99.90
52517;DHT22;59374;53.210;5.726;2022-10-16T15:05:21;16.00;99.90
52517;DHT22;59374;53.210;5.726;2022-10-16T15:07:50;15.90;99.90
52517;DHT22;59374;53.210;5.726;2022-10-16T15:10:17;15.80;99.90
52517;DHT22;59374;53.210;5.726;2022-10-16T15:12:43;15.70;99.90
52517;DHT22;59374;53.210;5.726;2022-10-16T15:15:33;15.70;99.90
52517;DHT22;59374;53.210;5.726;2022-10-16T15:18:00;15.60;99.90
52517;DHT22;59374;53.210;5.726;2022-10-16T15:20:32;15.60;99.90
52517;DHT22;59374;53.210;5.726;2022-10-16T15:23:00;15.50;99.90
52517;DHT22;59374;53.210;5.726;2022-10-16T15:25:52;15.50;99.90
52517;DHT22;59374;53.210;5.726;2022-10-16T15:28:19;15.50;99.90
52517;DHT22;59374;53.210;5.726;2022-10-16T15:30:46;15.40;99.90
52517;DHT22;59374;53.210;5.726;2022-10-16T15:33:28;15.40;99.90
52517;DHT22;59374;53.210;5.726;2022-10-16T15:35:58;15.40;99.90
52517;DHT22;59374;53.210;5.726;2022-10-16T15:38:24;15.30;99.90
52517;DHT22;59374;53.210;5.726;2022-10-16T15:40:50;15.30;99.90
52517;DHT22;59374;53.210;5.726;2022-10-16T15:43:17;15.30;99.90
52517;DHT22;59374;53.210;5.726;2022-10-16T15:45:44;15.20;99.90
52517;DHT22;59374;53.210;5.726;2022-10-16T15:48:13;15.20;99.90
52517;DHT22;59374;53.210;5.726;2022-10-16T15:50:41;15.10;99.90
52517;DHT22;59374;53.210;5.726;2022-10-16T15:53:07;15.10;99.90
52517;DHT22;59374;53.210;5.726;2022-10-16T15:55:33;15.10;99.90
52517;DHT22;59374;53.210;5.726;2022-10-16T15:57:59;15.10;99.90
52517;DHT22;59374;53.210;5.726;2022-10-16T16:00:25;15.00;99.90
52517;DHT22;59374;53.210;5.726;2022-10-16T16:02:55;14.90;99.90
52517;DHT22;59374;53.210;5.726;2022-10-16T16:05:22;14.80;99.90
52517;DHT22;59374;53.210;5.726;2022-10-16T16:07:49;14.70;99.90
52517;DHT22;59374;53.210;5.726;2022-10-16T16:10:17;14.70;99.90
52517;DHT22;59374;53.210;5.726;2022-10-16T16:12:42;14.60;99.90
52517;DHT22;59374;53.210;5.726;2022-10-16T16:15:09;14.50;99.90
52517;DHT22;59374;53.210;5.726;2022-10-16T16:17:35;14.30;99.90
52517;DHT22;59374;53.210;5.726;2022-10-16T16:20:02;14.30;99.90
52517;DHT22;59374;53.210;5.726;2022-10-16T16:22:29;14.20;99.90
52517;DHT22;59374;53.210;5.726;2022-10-16T16:24:55;14.10;99.90
52517;DHT22;59374;53.210;5.726;2022-10-16T16:27:20;14.10;99.90
52517;DHT22;59374;53.210;5.726;2022-10-16T16:29:47;14.10;99.90
52517;DHT22;59374;53.210;5.726;2022-10-16T16:32:13;14.00;99.90
52517;DHT22;59374;53.210;5.726;2022-10-16T16:34:38;14.00;99.90
52517;DHT22;59374;53.210;5.726;2022-10-16T16:37:04;13.90;99.90
52517;DHT22;59374;53.210;5.726;2022-10-16T16:39:30;13.80;99.90
52517;DHT22;59374;53.210;5.726;2022-10-16T16:41:56;13.80;99.90
52517;DHT22;59374;53.210;5.726;2022-10-16T16:44:22;13.70;99.90
52517;DHT22;59374;53.210;5.726;2022-10-16T16:46:47;13.60;99.90
52517;DHT22;59374;53.210;5.726;2022-10-16T16:49:13;13.60;99.90
52517;DHT22;59374;53.210;5.726;2022-10-16T16:51:40;13.50;99.90
52517;DHT22;59374;53.210;5.726;2022-10-16T16:54:07;13.40;99.90
52517;DHT22;59374;53.210;5.726;2022-10-16T16:56:33;13.40;99.90
52517;DHT22;59374;53.210;5.726;2022-10-16T16:58:59;13.30;99.90
52517;DHT22;59374;53.210;5.726;2022-10-16T17:01:25;13.30;99.90
52517;DHT22;59374;53.210;5.726;2022-10-16T17:03:53;13.30;99.90
52517;DHT22;59374;53.210;5.726;2022-10-16T17:06:21;13.20;99.90
52517;DHT22;59374;53.210;5.726;2022-10-16T17:08:48;13.20;99.90
52517;DHT22;59374;53.210;5.726;2022-10-16T17:11:24;13.20;99.90
52517;DHT22;59374;53.210;5.726;2022-10-16T17:13:50;13.20;99.90
52517;DHT22;59374;53.210;5.726;2022-10-16T17:16:18;13.10;99.90
52517;DHT22;59374;53.210;5.726;2022-10-16T17:18:43;13.10;99.90
52517;DHT22;59374;53.210;5.726;2022-10-16T17:21:09;13.10;99.90
52517;DHT22;59374;53.210;5.726;2022-10-16T17:23:36;13.00;99.90
52517;DHT22;59374;53.210;5.726;2022-10-16T17:26:07;13.00;99.90
52517;DHT22;59374;53.210;5.726;2022-10-16T17:28:33;13.00;99.90
52517;DHT22;59374;53.210;5.726;2022-10-16T17:31:18;12.90;99.90
52517;DHT22;59374;53.210;5.726;2022-10-16T17:33:45;12.90;99.90
52517;DHT22;59374;53.210;5.726;2022-10-16T17:36:11;12.80;99.90
52517;DHT22;59374;53.210;5.726;2022-10-16T17:38:39;12.80;99.90
52517;DHT22;59374;53.210;5.726;2022-10-16T17:41:13;12.80;99.90
52517;DHT22;59374;53.210;5.726;2022-10-16T17:43:40;12.80;99.90
52517;DHT22;59374;53.210;5.726;2022-10-16T17:46:06;12.80;99.90
52517;DHT22;59374;53.210;5.726;2022-10-16T17:48:35;12.80;99.90
52517;DHT22;59374;53.210;5.726;2022-10-16T17:51:04;12.70;99.90
52517;DHT22;59374;53.210;5.726;2022-10-16T17:53:30;12.70;99.90
52517;DHT22;59374;53.210;5.726;2022-10-16T17:55:55;12.70;99.90
52517;DHT22;59374;53.210;5.726;2022-10-16T17:58:23;12.60;99.90
52517;DHT22;59374;53.210;5.726;2022-10-16T18:00:49;12.60;99.90
52517;DHT22;59374;53.210;5.726;2022-10-16T18:03:15;12.60;99.90